sensor_id;sensor_type;location;lat;lon;timestamp;P1;durP1;ratioP1;P2;durP2;ratioP2
19107;SDS011;9686;48.832;9.126;2024-01-06T00:00:09;1.20;;;1.03;;
19107;SDS011;9686;48.832;9.126;2024-01-06T00:02:35;5.13;;;1.43;;
19107;SDS011;9686;48.832;9.126;2024-01-06T00:05:00;2.07;;;1.60;;
19107;SDS011;9686;48.832;9.126;2024-01-06T00:07:26;2.80;;;1.20;;
19107;SDS011;9686;48.832;9.126;2024-01-06T00:09:51;1.30;;;1.20;;
19107;SDS011;9686;48.832;9.126;2024-01-06T00:12:17;1.93;;;1.13;;
19107;SDS011;9686;48.832;9.126;2024-01-06T00:14:43;6.33;;;1.33;;
19107;SDS011;9686;48.832;9.126;2024-01-06T00:17:10;4.77;;;1.70;;
19107;SDS011;9686;48.832;9.126;2024-01-06T00:19:36;2.67;;;1.13;;
19107;SDS011;9686;48.832;9.126;2024-01-06T00:22:01;1.80;;;1.03;;
19107;SDS011;9686;48.832;9.126;2024-01-06T00:24:26;1.50;;;0.73;;
19107;SDS011;9686;48.832;9.126;2024-01-06T00:26:52;1.10;;;1.00;;
19107;SDS011;9686;48.832;9.126;2024-01-06T00:29:17;2.83;;;1.03;;
19107;SDS011;9686;48.832;9.126;2024-01-06T00:31:43;2.83;;;1.30;;
19107;SDS011;9686;48.832;9.126;2024-01-06T00:34:08;0.70;;;0.70;;
19107;SDS011;9686;48.832;9.126;2024-01-06T00:36:34;1.30;;;1.20;;
19107;SDS011;9686;48.832;9.126;2024-01-06T00:38:59;1.30;;;1.20;;
19107;SDS011;9686;48.832;9.126;2024-01-06T00:41:24;1.00;;;0.83;;
19107;SDS011;9686;48.832;9.126;2024-01-06T00:43:49;1.77;;;0.80;;
19107;SDS011;9686;48.832;9.126;2024-01-06T00:46:15;1.37;;;1.23;;
19107;SDS011;9686;48.832;9.126;2024-01-06T00:48:40;1.87;;;1.43;;
19107;SDS011;9686;48.832;9.126;2024-01-06T00:51:06;0.90;;;0.90;;
19107;SDS011;9686;48.832;9.126;2024-01-06T00:53:31;0.97;;;0.97;;
19107;SDS011;9686;48.832;9.126;2024-01-06T00:55:57;1.20;;;1.07;;
19107;SDS011;9686;48.832;9.126;2024-01-06T00:58:22;2.87;;;0.93;;
19107;SDS011;9686;48.832;9.126;2024-01-06T01:00:47;1.17;;;1.10;;
19107;SDS011;9686;48.832;9.126;2024-01-06T01:03:13;1.13;;;1.07;;
19107;SDS011;9686;48.832;9.126;2024-01-06T01:05:38;0.80;;;0.80;;
19107;SDS011;9686;48.832;9.126;2024-01-06T01:08:03;0.63;;;0.63;;
19107;SDS011;9686;48.832;9.126;2024-01-06T01:10:29;0.60;;;0.60;;
19107;SDS011;9686;48.832;9.126;2024-01-06T01:12:54;0.60;;;0.60;;
19107;SDS011;9686;48.832;9.126;2024-01-06T01:15:20;1.43;;;1.10;;
19107;SDS011;9686;48.832;9.126;2024-01-06T01:17:45;1.03;;;0.77;;
19107;SDS011;9686;48.832;9.126;2024-01-06T01:20:10;1.53;;;1.10;;
19107;SDS011;9686;48.832;9.126;2024-01-06T01:22:36;0.87;;;0.87;;
19107;SDS011;9686;48.832;9.126;2024-01-06T01:25:01;4.30;;;0.97;;
19107;SDS011;9686;48.832;9.126;2024-01-06T01:27:32;3.03;;;0.80;;
19107;SDS011;9686;48.832;9.126;2024-01-06T01:29:57;0.53;;;0.50;;
19107;SDS011;9686;48.832;9.126;2024-01-06T01:32:23;1.70;;;0.93;;
19107;SDS011;9686;48.832;9.126;2024-01-06T01:34:48;1.00;;;1.00;;
19107;SDS011;9686;48.832;9.126;2024-01-06T01:37:13;1.60;;;1.00;;
19107;SDS011;9686;48.832;9.126;2024-01-06T01:39:40;4.63;;;1.40;;
19107;SDS011;9686;48.832;9.126;2024-01-06T01:42:05;1.30;;;0.87;;
19107;SDS011;9686;48.832;9.126;2024-01-06T01:44:31;0.60;;;0.60;;
19107;SDS011;9686;48.832;9.126;2024-01-06T01:46:56;0.53;;;0.53;;
19107;SDS011;9686;48.832;9.126;2024-01-06T01:49:21;1.10;;;1.00;;
19107;SDS011;9686;48.832;9.126;2024-01-06T01:51:47;0.80;;;0.70;;
19107;SDS011;9686;48.832;9.126;2024-01-06T01:54:14;1.47;;;0.90;;
19107;SDS011;9686;48.832;9.126;2024-01-06T01:56:39;1.10;;;0.90;;
19107;SDS011;9686;48.832;9.126;2024-01-06T01:59:09;0.60;;;0.60;;
19107;SDS011;9686;48.832;9.126;2024-01-06T02:01:37;1.40;;;0.90;;
19107;SDS011;9686;48.832;9.126;2024-01-06T02:04:03;0.67;;;0.67;;
19107;SDS011;9686;48.832;9.126;2024-01-06T02:06:28;2.53;;;1.00;;
19107;SDS011;9686;48.832;9.126;2024-01-06T02:08:53;2.00;;;0.47;;
19107;SDS011;9686;48.832;9.126;2024-01-06T02:11:19;1.13;;;0.63;;
19107;SDS011;9686;48.832;9.126;2024-01-06T02:13:44;3.10;;;1.07;;
19107;SDS011;9686;48.832;9.126;2024-01-06T02:16:10;1.20;;;1.10;;
19107;SDS011;9686;48.832;9.126;2024-01-06T02:18:35;4.13;;;1.07;;
19107;SDS011;9686;48.832;9.126;2024-01-06T02:21:01;2.90;;;1.30;;
19107;SDS011;9686;48.832;9.126;2024-01-06T02:23:29;2.70;;;1.27;;
19107;SDS011;9686;48.832;9.126;2024-01-06T02:25:54;1.13;;;1.03;;
19107;SDS011;9686;48.832;9.126;2024-01-06T02:28:20;1.43;;;0.80;;
19107;SDS011;9686;48.832;9.126;2024-01-06T02:30:46;2.67;;;1.23;;
19107;SDS011;9686;48.832;9.126;2024-01-06T02:33:11;7.07;;;1.27;;
19107;SDS011;9686;48.832;9.126;2024-01-06T02:35:36;3.60;;;0.83;;
19107;SDS011;9686;48.832;9.126;2024-01-06T02:38:02;4.87;;;0.90;;
19107;SDS011;9686;48.832;9.126;2024-01-06T02:40:27;0.73;;;0.73;;
19107;SDS011;9686;48.832;9.126;2024-01-06T02:42:53;0.70;;;0.70;;
19107;SDS011;9686;48.832;9.126;2024-01-06T02:45:18;2.93;;;0.83;;
19107;SDS011;9686;48.832;9.126;2024-01-06T02:47:44;2.70;;;1.10;;
19107;SDS011;9686;48.832;9.126;2024-01-06T02:50:09;0.80;;;0.80;;
19107;SDS011;9686;48.832;9.126;2024-01-06T02:52:34;0.63;;;0.63;;
19107;SDS011;9686;48.832;9.126;2024-01-06T02:55:00;0.57;;;0.57;;
19107;SDS011;9686;48.832;9.126;2024-01-06T02:57:26;1.63;;;1.00;;
19107;SDS011;9686;48.832;9.126;2024-01-06T02:59:52;1.03;;;0.90;;
19107;SDS011;9686;48.832;9.126;2024-01-06T03:02:18;1.23;;;0.90;;
19107;SDS011;9686;48.832;9.126;2024-01-06T03:04:43;1.53;;;1.07;;
19107;SDS011;9686;48.832;9.126;2024-01-06T03:07:08;1.07;;;0.97;;
19107;SDS011;9686;48.832;9.126;2024-01-06T03:09:33;4.33;;;1.07;;
19107;SDS011;9686;48.832;9.126;2024-01-06T03:11:59;1.77;;;0.70;;
19107;SDS011;9686;48.832;9.126;2024-01-06T03:14:24;3.30;;;0.87;;
19107;SDS011;9686;48.832;9.126;2024-01-06T03:16:49;0.77;;;0.77;;
19107;SDS011;9686;48.832;9.126;2024-01-06T03:19:14;0.97;;;0.60;;
19107;SDS011;9686;48.832;9.126;2024-01-06T03:21:40;1.43;;;0.90;;
19107;SDS011;9686;48.832;9.126;2024-01-06T03:24:06;5.87;;;1.00;;
19107;SDS011;9686;48.832;9.126;2024-01-06T03:26:32;1.23;;;0.67;;
19107;SDS011;9686;48.832;9.126;2024-01-06T03:28:58;1.33;;;0.90;;
19107;SDS011;9686;48.832;9.126;2024-01-06T03:31:24;0.47;;;0.47;;
19107;SDS011;9686;48.832;9.126;2024-01-06T03:33:49;0.73;;;0.70;;
19107;SDS011;9686;48.832;9.126;2024-01-06T03:36:16;0.47;;;0.47;;
19107;SDS011;9686;48.832;9.126;2024-01-06T03:38:41;0.30;;;0.30;;
19107;SDS011;9686;48.832;9.126;2024-01-06T03:41:07;0.70;;;0.70;;
19107;SDS011;9686;48.832;9.126;2024-01-06T03:43:32;2.20;;;1.07;;
19107;SDS011;9686;48.832;9.126;2024-01-06T03:45:58;1.67;;;1.13;;
19107;SDS011;9686;48.832;9.126;2024-01-06T03:48:25;1.37;;;0.87;;
19107;SDS011;9686;48.832;9.126;2024-01-06T03:50:50;0.57;;;0.57;;
19107;SDS011;9686;48.832;9.126;2024-01-06T03:53:15;4.00;;;1.00;;
19107;SDS011;9686;48.832;9.126;2024-01-06T03:55:41;4.03;;;1.20;;
19107;SDS011;9686;48.832;9.126;2024-01-06T03:58:06;3.13;;;0.70;;
19107;SDS011;9686;48.832;9.126;2024-01-06T04:00:31;1.30;;;0.90;;
19107;SDS011;9686;48.832;9.126;2024-01-06T04:02:57;0.50;;;0.50;;
19107;SDS011;9686;48.832;9.126;2024-01-06T04:05:22;2.63;;;1.50;;
19107;SDS011;9686;48.832;9.126;2024-01-06T04:07:47;4.20;;;0.50;;
19107;SDS011;9686;48.832;9.126;2024-01-06T04:10:13;2.03;;;1.17;;
19107;SDS011;9686;48.832;9.126;2024-01-06T04:12:38;0.43;;;0.43;;
19107;SDS011;9686;48.832;9.126;2024-01-06T04:15:03;0.63;;;0.63;;
19107;SDS011;9686;48.832;9.126;2024-01-06T04:17:29;0.67;;;0.40;;
19107;SDS011;9686;48.832;9.126;2024-01-06T04:19:54;0.40;;;0.40;;
19107;SDS011;9686;48.832;9.126;2024-01-06T04:22:20;1.43;;;1.07;;
19107;SDS011;9686;48.832;9.126;2024-01-06T04:24:45;3.47;;;0.80;;
19107;SDS011;9686;48.832;9.126;2024-01-06T04:27:10;1.13;;;0.90;;
19107;SDS011;9686;48.832;9.126;2024-01-06T04:29:36;1.37;;;1.00;;
19107;SDS011;9686;48.832;9.126;2024-01-06T04:32:01;0.40;;;0.40;;
19107;SDS011;9686;48.832;9.126;2024-01-06T04:34:26;1.00;;;0.90;;
19107;SDS011;9686;48.832;9.126;2024-01-06T04:36:52;1.63;;;1.10;;
19107;SDS011;9686;48.832;9.126;2024-01-06T04:39:17;8.33;;;1.23;;
19107;SDS011;9686;48.832;9.126;2024-01-06T04:41:43;1.83;;;0.73;;
19107;SDS011;9686;48.832;9.126;2024-01-06T04:44:08;0.37;;;0.37;;
19107;SDS011;9686;48.832;9.126;2024-01-06T04:46:33;1.23;;;0.87;;
19107;SDS011;9686;48.832;9.126;2024-01-06T04:48:59;0.43;;;0.40;;
19107;SDS011;9686;48.832;9.126;2024-01-06T04:51:24;0.40;;;0.40;;
19107;SDS011;9686;48.832;9.126;2024-01-06T04:53:49;1.07;;;0.80;;
19107;SDS011;9686;48.832;9.126;2024-01-06T04:56:15;1.00;;;0.90;;
19107;SDS011;9686;48.832;9.126;2024-01-06T04:58:40;1.00;;;0.70;;
19107;SDS011;9686;48.832;9.126;2024-01-06T05:01:05;0.70;;;0.70;;
19107;SDS011;9686;48.832;9.126;2024-01-06T05:03:31;0.87;;;0.70;;
19107;SDS011;9686;48.832;9.126;2024-01-06T05:05:56;0.73;;;0.70;;
19107;SDS011;9686;48.832;9.126;2024-01-06T05:08:21;0.60;;;0.60;;
19107;SDS011;9686;48.832;9.126;2024-01-06T05:10:48;1.40;;;0.93;;
19107;SDS011;9686;48.832;9.126;2024-01-06T05:13:13;1.73;;;1.40;;
19107;SDS011;9686;48.832;9.126;2024-01-06T05:15:39;0.53;;;0.53;;
19107;SDS011;9686;48.832;9.126;2024-01-06T05:18:04;1.20;;;1.00;;
19107;SDS011;9686;48.832;9.126;2024-01-06T05:20:30;2.20;;;1.53;;
19107;SDS011;9686;48.832;9.126;2024-01-06T05:22:55;1.40;;;1.03;;
19107;SDS011;9686;48.832;9.126;2024-01-06T05:25:20;0.60;;;0.60;;
19107;SDS011;9686;48.832;9.126;2024-01-06T05:27:46;2.83;;;0.87;;
19107;SDS011;9686;48.832;9.126;2024-01-06T05:30:11;0.70;;;0.70;;
19107;SDS011;9686;48.832;9.126;2024-01-06T05:32:37;1.07;;;0.83;;
19107;SDS011;9686;48.832;9.126;2024-01-06T05:35:03;4.07;;;0.70;;
19107;SDS011;9686;48.832;9.126;2024-01-06T05:37:29;1.10;;;1.00;;
19107;SDS011;9686;48.832;9.126;2024-01-06T05:39:54;0.70;;;0.70;;
19107;SDS011;9686;48.832;9.126;2024-01-06T05:42:20;2.53;;;1.03;;
19107;SDS011;9686;48.832;9.126;2024-01-06T05:44:45;0.57;;;0.57;;
19107;SDS011;9686;48.832;9.126;2024-01-06T05:47:10;0.70;;;0.60;;
19107;SDS011;9686;48.832;9.126;2024-01-06T05:49:36;3.80;;;1.43;;
19107;SDS011;9686;48.832;9.126;2024-01-06T05:52:01;0.80;;;0.80;;
19107;SDS011;9686;48.832;9.126;2024-01-06T05:54:26;0.80;;;0.80;;
19107;SDS011;9686;48.832;9.126;2024-01-06T05:56:52;5.37;;;1.37;;
19107;SDS011;9686;48.832;9.126;2024-01-06T05:59:17;0.70;;;0.67;;
19107;SDS011;9686;48.832;9.126;2024-01-06T06:01:43;1.10;;;0.93;;
19107;SDS011;9686;48.832;9.126;2024-01-06T06:04:09;1.00;;;0.90;;
19107;SDS011;9686;48.832;9.126;2024-01-06T06:06:35;1.07;;;1.03;;
19107;SDS011;9686;48.832;9.126;2024-01-06T06:09:00;2.47;;;0.77;;
19107;SDS011;9686;48.832;9.126;2024-01-06T06:11:26;1.00;;;0.93;;
19107;SDS011;9686;48.832;9.126;2024-01-06T06:13:52;1.17;;;0.97;;
19107;SDS011;9686;48.832;9.126;2024-01-06T06:16:17;1.43;;;1.30;;
19107;SDS011;9686;48.832;9.126;2024-01-06T06:18:42;2.53;;;1.53;;
19107;SDS011;9686;48.832;9.126;2024-01-06T06:21:08;1.37;;;1.00;;
19107;SDS011;9686;48.832;9.126;2024-01-06T06:23:33;1.00;;;0.77;;
19107;SDS011;9686;48.832;9.126;2024-01-06T06:25:59;1.37;;;1.00;;
19107;SDS011;9686;48.832;9.126;2024-01-06T06:28:28;0.70;;;0.70;;
19107;SDS011;9686;48.832;9.126;2024-01-06T06:30:53;1.03;;;0.90;;
19107;SDS011;9686;48.832;9.126;2024-01-06T06:33:18;0.80;;;0.80;;
19107;SDS011;9686;48.832;9.126;2024-01-06T06:35:44;2.53;;;1.10;;
19107;SDS011;9686;48.832;9.126;2024-01-06T06:38:09;0.87;;;0.83;;
19107;SDS011;9686;48.832;9.126;2024-01-06T06:40:34;0.83;;;0.67;;
19107;SDS011;9686;48.832;9.126;2024-01-06T06:43:00;1.80;;;1.23;;
19107;SDS011;9686;48.832;9.126;2024-01-06T06:45:25;0.93;;;0.93;;
19107;SDS011;9686;48.832;9.126;2024-01-06T06:47:50;1.83;;;1.60;;
19107;SDS011;9686;48.832;9.126;2024-01-06T06:50:18;1.50;;;1.33;;
19107;SDS011;9686;48.832;9.126;2024-01-06T06:52:45;1.87;;;1.37;;
19107;SDS011;9686;48.832;9.126;2024-01-06T06:55:11;1.23;;;1.13;;
19107;SDS011;9686;48.832;9.126;2024-01-06T06:57:36;4.20;;;1.07;;
19107;SDS011;9686;48.832;9.126;2024-01-06T07:00:02;0.87;;;0.87;;
19107;SDS011;9686;48.832;9.126;2024-01-06T07:02:27;0.77;;;0.77;;
19107;SDS011;9686;48.832;9.126;2024-01-06T07:04:53;0.73;;;0.73;;
19107;SDS011;9686;48.832;9.126;2024-01-06T07:07:18;1.30;;;1.10;;
19107;SDS011;9686;48.832;9.126;2024-01-06T07:09:44;1.23;;;0.80;;
19107;SDS011;9686;48.832;9.126;2024-01-06T07:12:09;1.27;;;1.00;;
19107;SDS011;9686;48.832;9.126;2024-01-06T07:14:34;1.20;;;1.10;;
19107;SDS011;9686;48.832;9.126;2024-01-06T07:16:59;0.87;;;0.87;;
19107;SDS011;9686;48.832;9.126;2024-01-06T07:19:25;2.37;;;1.00;;
19107;SDS011;9686;48.832;9.126;2024-01-06T07:21:50;1.90;;;1.27;;
19107;SDS011;9686;48.832;9.126;2024-01-06T07:24:15;1.03;;;0.93;;
19107;SDS011;9686;48.832;9.126;2024-01-06T07:26:40;1.47;;;1.30;;
19107;SDS011;9686;48.832;9.126;2024-01-06T07:29:06;2.70;;;1.10;;
19107;SDS011;9686;48.832;9.126;2024-01-06T07:31:33;2.80;;;1.47;;
19107;SDS011;9686;48.832;9.126;2024-01-06T07:33:58;0.80;;;0.80;;
19107;SDS011;9686;48.832;9.126;2024-01-06T07:36:23;4.90;;;1.10;;
19107;SDS011;9686;48.832;9.126;2024-01-06T07:38:48;0.90;;;0.90;;
19107;SDS011;9686;48.832;9.126;2024-01-06T07:41:14;2.37;;;2.17;;
19107;SDS011;9686;48.832;9.126;2024-01-06T07:43:39;1.20;;;1.00;;
19107;SDS011;9686;48.832;9.126;2024-01-06T07:46:04;1.63;;;1.53;;
19107;SDS011;9686;48.832;9.126;2024-01-06T07:48:31;5.57;;;4.27;;
19107;SDS011;9686;48.832;9.126;2024-01-06T07:50:57;1.50;;;1.40;;
19107;SDS011;9686;48.832;9.126;2024-01-06T07:53:22;0.93;;;0.93;;
19107;SDS011;9686;48.832;9.126;2024-01-06T07:55:47;2.07;;;1.10;;
19107;SDS011;9686;48.832;9.126;2024-01-06T07:58:13;0.60;;;0.60;;
19107;SDS011;9686;48.832;9.126;2024-01-06T08:00:38;1.17;;;1.00;;
19107;SDS011;9686;48.832;9.126;2024-01-06T08:03:03;2.90;;;2.37;;
19107;SDS011;9686;48.832;9.126;2024-01-06T08:05:31;1.67;;;1.20;;
19107;SDS011;9686;48.832;9.126;2024-01-06T08:07:56;1.03;;;1.03;;
19107;SDS011;9686;48.832;9.126;2024-01-06T08:10:21;0.97;;;0.97;;
19107;SDS011;9686;48.832;9.126;2024-01-06T08:12:47;1.73;;;1.27;;
19107;SDS011;9686;48.832;9.126;2024-01-06T08:15:13;1.07;;;0.97;;
19107;SDS011;9686;48.832;9.126;2024-01-06T08:17:38;2.63;;;1.17;;
19107;SDS011;9686;48.832;9.126;2024-01-06T08:20:05;1.27;;;0.90;;
19107;SDS011;9686;48.832;9.126;2024-01-06T08:22:32;1.00;;;0.97;;
19107;SDS011;9686;48.832;9.126;2024-01-06T08:24:57;0.63;;;0.63;;
19107;SDS011;9686;48.832;9.126;2024-01-06T08:27:22;1.30;;;0.97;;
19107;SDS011;9686;48.832;9.126;2024-01-06T08:29:48;1.10;;;1.00;;
19107;SDS011;9686;48.832;9.126;2024-01-06T08:32:14;5.17;;;0.87;;
19107;SDS011;9686;48.832;9.126;2024-01-06T08:34:40;1.63;;;0.90;;
19107;SDS011;9686;48.832;9.126;2024-01-06T08:37:05;6.07;;;0.70;;
19107;SDS011;9686;48.832;9.126;2024-01-06T08:39:31;1.03;;;0.87;;
19107;SDS011;9686;48.832;9.126;2024-01-06T08:41:56;2.17;;;1.43;;
19107;SDS011;9686;48.832;9.126;2024-01-06T08:44:22;1.30;;;1.03;;
19107;SDS011;9686;48.832;9.126;2024-01-06T08:46:47;0.50;;;0.50;;
19107;SDS011;9686;48.832;9.126;2024-01-06T08:49:12;1.57;;;1.47;;
19107;SDS011;9686;48.832;9.126;2024-01-06T08:51:38;1.70;;;0.90;;
19107;SDS011;9686;48.832;9.126;2024-01-06T08:54:03;0.53;;;0.53;;
19107;SDS011;9686;48.832;9.126;2024-01-06T08:56:30;0.60;;;0.60;;
19107;SDS011;9686;48.832;9.126;2024-01-06T08:58:55;0.73;;;0.73;;
19107;SDS011;9686;48.832;9.126;2024-01-06T09:01:22;0.97;;;0.90;;
19107;SDS011;9686;48.832;9.126;2024-01-06T09:03:47;0.63;;;0.63;;
19107;SDS011;9686;48.832;9.126;2024-01-06T09:06:14;1.00;;;0.77;;
19107;SDS011;9686;48.832;9.126;2024-01-06T09:08:39;1.13;;;0.90;;
19107;SDS011;9686;48.832;9.126;2024-01-06T09:11:05;0.53;;;0.53;;
19107;SDS011;9686;48.832;9.126;2024-01-06T09:13:30;1.37;;;1.27;;
19107;SDS011;9686;48.832;9.126;2024-01-06T09:15:57;9.40;;;1.10;;
19107;SDS011;9686;48.832;9.126;2024-01-06T09:18:22;0.60;;;0.60;;
19107;SDS011;9686;48.832;9.126;2024-01-06T09:20:47;1.13;;;0.83;;
19107;SDS011;9686;48.832;9.126;2024-01-06T09:23:13;0.80;;;0.80;;
19107;SDS011;9686;48.832;9.126;2024-01-06T09:25:38;3.47;;;0.90;;
19107;SDS011;9686;48.832;9.126;2024-01-06T09:28:05;0.60;;;0.60;;
19107;SDS011;9686;48.832;9.126;2024-01-06T09:30:30;0.50;;;0.50;;
19107;SDS011;9686;48.832;9.126;2024-01-06T09:32:56;0.60;;;0.60;;
19107;SDS011;9686;48.832;9.126;2024-01-06T09:35:21;1.20;;;1.10;;
19107;SDS011;9686;48.832;9.126;2024-01-06T09:37:46;1.37;;;0.80;;
19107;SDS011;9686;48.832;9.126;2024-01-06T09:40:12;0.60;;;0.60;;
19107;SDS011;9686;48.832;9.126;2024-01-06T09:42:41;0.73;;;0.73;;
19107;SDS011;9686;48.832;9.126;2024-01-06T09:45:06;1.47;;;1.00;;
19107;SDS011;9686;48.832;9.126;2024-01-06T09:47:33;1.07;;;0.83;;
19107;SDS011;9686;48.832;9.126;2024-01-06T09:50:00;0.83;;;0.83;;
19107;SDS011;9686;48.832;9.126;2024-01-06T09:52:28;0.93;;;0.80;;
19107;SDS011;9686;48.832;9.126;2024-01-06T09:54:57;5.77;;;1.23;;
19107;SDS011;9686;48.832;9.126;2024-01-06T09:57:25;0.60;;;0.60;;
19107;SDS011;9686;48.832;9.126;2024-01-06T09:59:51;0.77;;;0.77;;
19107;SDS011;9686;48.832;9.126;2024-01-06T10:02:17;0.77;;;0.77;;
19107;SDS011;9686;48.832;9.126;2024-01-06T10:04:43;1.27;;;1.13;;
19107;SDS011;9686;48.832;9.126;2024-01-06T10:07:09;0.90;;;0.90;;
19107;SDS011;9686;48.832;9.126;2024-01-06T10:09:37;0.80;;;0.80;;
19107;SDS011;9686;48.832;9.126;2024-01-06T10:12:03;0.60;;;0.60;;
19107;SDS011;9686;48.832;9.126;2024-01-06T10:14:28;1.17;;;0.80;;
19107;SDS011;9686;48.832;9.126;2024-01-06T10:16:53;0.80;;;0.80;;
19107;SDS011;9686;48.832;9.126;2024-01-06T10:19:19;1.57;;;0.97;;
19107;SDS011;9686;48.832;9.126;2024-01-06T10:21:44;1.30;;;0.63;;
19107;SDS011;9686;48.832;9.126;2024-01-06T10:24:10;0.60;;;0.60;;
19107;SDS011;9686;48.832;9.126;2024-01-06T10:26:36;0.60;;;0.60;;
19107;SDS011;9686;48.832;9.126;2024-01-06T10:29:01;0.80;;;0.80;;
19107;SDS011;9686;48.832;9.126;2024-01-06T10:31:27;0.73;;;0.73;;
19107;SDS011;9686;48.832;9.126;2024-01-06T10:33:54;0.63;;;0.63;;
19107;SDS011;9686;48.832;9.126;2024-01-06T10:36:21;2.10;;;0.80;;
19107;SDS011;9686;48.832;9.126;2024-01-06T10:38:49;0.63;;;0.63;;
19107;SDS011;9686;48.832;9.126;2024-01-06T10:41:15;0.60;;;0.60;;
19107;SDS011;9686;48.832;9.126;2024-01-06T10:43:42;0.80;;;0.80;;
19107;SDS011;9686;48.832;9.126;2024-01-06T10:46:08;0.70;;;0.70;;
19107;SDS011;9686;48.832;9.126;2024-01-06T10:48:38;0.70;;;0.70;;
19107;SDS011;9686;48.832;9.126;2024-01-06T10:51:07;0.60;;;0.60;;
19107;SDS011;9686;48.832;9.126;2024-01-06T10:53:33;0.70;;;0.70;;
19107;SDS011;9686;48.832;9.126;2024-01-06T10:56:04;0.57;;;0.57;;
19107;SDS011;9686;48.832;9.126;2024-01-06T10:58:30;1.10;;;1.10;;
19107;SDS011;9686;48.832;9.126;2024-01-06T11:00:58;1.00;;;1.00;;
19107;SDS011;9686;48.832;9.126;2024-01-06T11:03:25;0.60;;;0.60;;
19107;SDS011;9686;48.832;9.126;2024-01-06T11:05:53;1.27;;;1.17;;
19107;SDS011;9686;48.832;9.126;2024-01-06T11:08:19;1.00;;;0.90;;
19107;SDS011;9686;48.832;9.126;2024-01-06T11:10:46;0.43;;;0.43;;
19107;SDS011;9686;48.832;9.126;2024-01-06T11:13:13;0.80;;;0.80;;
19107;SDS011;9686;48.832;9.126;2024-01-06T11:15:49;0.80;;;0.80;;
19107;SDS011;9686;48.832;9.126;2024-01-06T11:18:35;1.37;;;1.27;;
19107;SDS011;9686;48.832;9.126;2024-01-06T11:21:18;0.73;;;0.73;;
19107;SDS011;9686;48.832;9.126;2024-01-06T11:26:42;1.10;;;1.07;;
19107;SDS011;9686;48.832;9.126;2024-01-06T11:29:08;2.33;;;1.60;;
19107;SDS011;9686;48.832;9.126;2024-01-06T11:31:33;1.63;;;1.40;;
19107;SDS011;9686;48.832;9.126;2024-01-06T11:34:12;0.97;;;0.97;;
19107;SDS011;9686;48.832;9.126;2024-01-06T11:36:39;0.90;;;0.90;;
19107;SDS011;9686;48.832;9.126;2024-01-06T11:39:05;0.97;;;0.93;;
19107;SDS011;9686;48.832;9.126;2024-01-06T11:41:49;1.53;;;1.20;;
19107;SDS011;9686;48.832;9.126;2024-01-06T11:44:20;0.93;;;0.87;;
19107;SDS011;9686;48.832;9.126;2024-01-06T11:46:47;2.20;;;1.63;;
19107;SDS011;9686;48.832;9.126;2024-01-06T11:49:17;2.23;;;1.70;;
19107;SDS011;9686;48.832;9.126;2024-01-06T11:51:45;0.93;;;0.87;;
19107;SDS011;9686;48.832;9.126;2024-01-06T11:54:10;0.90;;;0.90;;
19107;SDS011;9686;48.832;9.126;2024-01-06T11:56:37;1.63;;;1.50;;
19107;SDS011;9686;48.832;9.126;2024-01-06T11:59:03;1.30;;;1.20;;
19107;SDS011;9686;48.832;9.126;2024-01-06T12:01:35;1.30;;;1.20;;
19107;SDS011;9686;48.832;9.126;2024-01-06T12:04:01;1.70;;;1.60;;
19107;SDS011;9686;48.832;9.126;2024-01-06T12:06:28;1.30;;;1.20;;
19107;SDS011;9686;48.832;9.126;2024-01-06T12:09:02;3.83;;;1.10;;
19107;SDS011;9686;48.832;9.126;2024-01-06T12:11:41;1.90;;;1.23;;
19107;SDS011;9686;48.832;9.126;2024-01-06T12:14:09;2.83;;;1.83;;
19107;SDS011;9686;48.832;9.126;2024-01-06T12:16:34;1.20;;;1.10;;
19107;SDS011;9686;48.832;9.126;2024-01-06T12:18:59;3.50;;;1.50;;
19107;SDS011;9686;48.832;9.126;2024-01-06T12:21:29;1.63;;;1.53;;
19107;SDS011;9686;48.832;9.126;2024-01-06T12:24:12;2.03;;;1.77;;
19107;SDS011;9686;48.832;9.126;2024-01-06T12:26:42;2.13;;;1.83;;
19107;SDS011;9686;48.832;9.126;2024-01-06T12:29:10;1.60;;;1.50;;
19107;SDS011;9686;48.832;9.126;2024-01-06T12:31:35;2.17;;;1.97;;
19107;SDS011;9686;48.832;9.126;2024-01-06T12:34:00;0.80;;;0.80;;
19107;SDS011;9686;48.832;9.126;2024-01-06T12:36:25;1.23;;;1.20;;
19107;SDS011;9686;48.832;9.126;2024-01-06T12:38:51;2.50;;;1.73;;
19107;SDS011;9686;48.832;9.126;2024-01-06T12:41:16;1.73;;;1.63;;
19107;SDS011;9686;48.832;9.126;2024-01-06T12:43:41;1.67;;;1.57;;
19107;SDS011;9686;48.832;9.126;2024-01-06T12:46:07;3.33;;;1.93;;
19107;SDS011;9686;48.832;9.126;2024-01-06T12:48:32;1.63;;;1.40;;
19107;SDS011;9686;48.832;9.126;2024-01-06T12:50:57;2.07;;;1.87;;
19107;SDS011;9686;48.832;9.126;2024-01-06T12:53:22;2.00;;;1.80;;
19107;SDS011;9686;48.832;9.126;2024-01-06T12:55:48;1.87;;;1.43;;
19107;SDS011;9686;48.832;9.126;2024-01-06T12:58:13;2.50;;;1.87;;
19107;SDS011;9686;48.832;9.126;2024-01-06T13:00:39;2.20;;;2.03;;
19107;SDS011;9686;48.832;9.126;2024-01-06T13:03:05;4.33;;;2.67;;
19107;SDS011;9686;48.832;9.126;2024-01-06T13:05:30;1.50;;;1.40;;
19107;SDS011;9686;48.832;9.126;2024-01-06T13:07:56;3.53;;;2.93;;
19107;SDS011;9686;48.832;9.126;2024-01-06T13:10:22;2.73;;;2.47;;
19107;SDS011;9686;48.832;9.126;2024-01-06T13:12:48;1.70;;;1.60;;
19107;SDS011;9686;48.832;9.126;2024-01-06T13:15:13;1.80;;;1.70;;
19107;SDS011;9686;48.832;9.126;2024-01-06T13:17:39;2.13;;;2.00;;
19107;SDS011;9686;48.832;9.126;2024-01-06T13:20:04;2.87;;;2.10;;
19107;SDS011;9686;48.832;9.126;2024-01-06T13:22:30;2.00;;;1.80;;
19107;SDS011;9686;48.832;9.126;2024-01-06T13:24:56;2.87;;;2.23;;
19107;SDS011;9686;48.832;9.126;2024-01-06T13:27:22;2.33;;;2.13;;
19107;SDS011;9686;48.832;9.126;2024-01-06T13:29:47;2.27;;;2.10;;
19107;SDS011;9686;48.832;9.126;2024-01-06T13:32:13;4.10;;;2.60;;
19107;SDS011;9686;48.832;9.126;2024-01-06T13:34:40;1.97;;;1.80;;
19107;SDS011;9686;48.832;9.126;2024-01-06T13:37:05;2.53;;;2.20;;
19107;SDS011;9686;48.832;9.126;2024-01-06T13:39:32;2.53;;;2.30;;
19107;SDS011;9686;48.832;9.126;2024-01-06T13:41:57;2.63;;;1.93;;
19107;SDS011;9686;48.832;9.126;2024-01-06T13:44:22;2.60;;;2.40;;
19107;SDS011;9686;48.832;9.126;2024-01-06T13:46:48;5.70;;;2.27;;
19107;SDS011;9686;48.832;9.126;2024-01-06T13:49:15;1.83;;;1.73;;
19107;SDS011;9686;48.832;9.126;2024-01-06T13:51:41;2.53;;;2.33;;
19107;SDS011;9686;48.832;9.126;2024-01-06T13:54:07;3.23;;;2.90;;
19107;SDS011;9686;48.832;9.126;2024-01-06T13:56:34;1.73;;;1.63;;
19107;SDS011;9686;48.832;9.126;2024-01-06T13:58:59;2.27;;;2.07;;
19107;SDS011;9686;48.832;9.126;2024-01-06T14:01:25;2.27;;;2.07;;
19107;SDS011;9686;48.832;9.126;2024-01-06T14:03:50;3.73;;;2.50;;
19107;SDS011;9686;48.832;9.126;2024-01-06T14:06:22;2.77;;;2.33;;
19107;SDS011;9686;48.832;9.126;2024-01-06T14:08:48;5.33;;;2.10;;
19107;SDS011;9686;48.832;9.126;2024-01-06T14:11:13;2.43;;;2.23;;
19107;SDS011;9686;48.832;9.126;2024-01-06T14:13:38;1.80;;;1.70;;
19107;SDS011;9686;48.832;9.126;2024-01-06T14:16:04;4.47;;;2.90;;
19107;SDS011;9686;48.832;9.126;2024-01-06T14:18:29;2.77;;;2.57;;
19107;SDS011;9686;48.832;9.126;2024-01-06T14:20:54;2.93;;;2.63;;
19107;SDS011;9686;48.832;9.126;2024-01-06T14:23:21;3.10;;;2.90;;
19107;SDS011;9686;48.832;9.126;2024-01-06T14:25:46;2.13;;;1.93;;
19107;SDS011;9686;48.832;9.126;2024-01-06T14:28:12;2.43;;;2.17;;
19107;SDS011;9686;48.832;9.126;2024-01-06T14:30:37;2.50;;;2.30;;
19107;SDS011;9686;48.832;9.126;2024-01-06T14:33:03;2.37;;;2.23;;
19107;SDS011;9686;48.832;9.126;2024-01-06T14:35:28;2.43;;;2.17;;
19107;SDS011;9686;48.832;9.126;2024-01-06T14:37:53;2.37;;;2.10;;
19107;SDS011;9686;48.832;9.126;2024-01-06T14:40:19;5.37;;;3.00;;
19107;SDS011;9686;48.832;9.126;2024-01-06T14:42:44;5.90;;;2.97;;
19107;SDS011;9686;48.832;9.126;2024-01-06T14:45:10;3.17;;;2.87;;
19107;SDS011;9686;48.832;9.126;2024-01-06T14:47:35;2.70;;;2.27;;
19107;SDS011;9686;48.832;9.126;2024-01-06T14:50:00;2.53;;;2.33;;
19107;SDS011;9686;48.832;9.126;2024-01-06T14:52:26;3.10;;;2.87;;
19107;SDS011;9686;48.832;9.126;2024-01-06T14:54:52;3.17;;;2.80;;